Time;durP1;ratioP1;P1;durP2;ratioP2;P2;SDS_P1;SDS_P2;PMS_P1;PMS_P2;Temp;Humidity;BMP_temperature;BMP_pressure;BME280_temperature;BME280_humidity;BME280_pressure;Samples;Min_cycle;Max_cycle;Signal;HPM_P1;HPM_P2
2022/07/06 00:01:29;;;;;;;30.58;20.65;;;;;;;19.70;100.00;99425.78;5072611;28;20039;-42
2022/07/06 00:03:55;;;;;;;28.77;20.95;;;;;;;19.61;100.00;99405.41;5091914;28;20031;-43
2022/07/06 00:06:21;;;;;;;29.63;21.88;;;;;;;19.67;100.00;99422.56;5074580;28;20074;-44
2022/07/06 00:08:47;;;;;;;26.85;20.17;;;;;;;19.66;100.00;99424.34;5074220;28;20047;-43
2022/07/06 00:11:13;;;;;;;29.83;21.25;;;;;;;19.67;100.00;99422.56;5092532;28;20039;-42
2022/07/06 00:13:39;;;;;;;28.63;20.80;;;;;;;19.65;100.00;99417.38;5092152;28;20123;-44
2022/07/06 00:16:05;;;;;;;27.13;20.52;;;;;;;19.64;100.00;99412.22;5074072;28;20127;-42
2022/07/06 00:18:30;;;;;;;28.27;20.35;;;;;;;19.60;100.00;99408.97;5074313;28;20442;-43
2022/07/06 00:20:56;;;;;;;27.92;20.95;;;;;;;19.58;100.00;99410.88;5092517;28;20051;-43
2022/07/06 00:23:22;;;;;;;27.48;20.77;;;;;;;19.57;100.00;99400.47;5092996;28;20539;-43
2022/07/06 00:25:48;;;;;;;25.83;19.70;;;;;;;19.56;100.00;99404.91;5092282;28;20526;-46
2022/07/06 00:28:14;;;;;;;29.02;21.65;;;;;;;19.56;100.00;99398.78;5091803;28;20541;-43
2022/07/06 00:30:40;;;;;;;29.60;21.25;;;;;;;19.54;100.00;99396.25;5066552;28;20032;-42
2022/07/06 00:33:06;;;;;;;25.50;20.95;;;;;;;19.54;100.00;99401.53;5089210;28;20039;-42
2022/07/06 00:35:32;;;;;;;28.45;20.13;;;;;;;19.53;100.00;99393.72;5075353;28;20067;-43
2022/07/06 00:37:58;;;;;;;27.00;20.33;;;;;;;19.50;100.00;99388.69;5073812;28;20071;-43
2022/07/06 00:40:24;;;;;;;28.52;21.00;;;;;;;19.51;100.00;99390.38;5076416;28;20040;-43
2022/07/06 00:42:50;;;;;;;31.17;21.08;;;;;;;19.50;100.00;99392.19;5054021;28;20131;-44
2022/07/06 00:45:17;;;;;;;26.13;20.17;;;;;;;19.49;100.00;99390.47;5078265;28;20229;-42
2022/07/06 00:47:43;;;;;;;27.83;21.30;;;;;;;19.52;100.00;99392.91;5070300;28;20033;-46
2022/07/06 00:50:15;;;;;;;27.98;19.90;;;;;;;19.52;100.00;99398.19;5058761;28;20078;-44
2022/07/06 00:52:43;;;;;;;28.08;20.38;;;;;;;19.55;100.00;99405.00;5074165;28;20035;-43
2022/07/06 00:55:10;;;;;;;29.20;21.35;;;;;;;19.55;100.00;99405.00;5091899;28;20064;-42
2022/07/06 00:57:37;;;;;;;27.83;21.08;;;;;;;19.55;100.00;99397.94;5091980;28;20218;-42
2022/07/06 01:00:05;;;;;;;27.17;19.83;;;;;;;19.56;100.00;99397.00;5073711;28;20169;-44
2022/07/06 01:02:35;;;;;;;28.60;20.30;;;;;;;19.61;100.00;99404.53;5072472;28;20056;-43
2022/07/06 01:05:01;;;;;;;32.95;21.15;;;;;;;19.61;100.00;99400.13;5091101;28;20032;-44
2022/07/06 01:07:28;;;;;;;27.50;19.88;;;;;;;19.65;100.00;99408.63;5090506;28;20047;-42
2022/07/06 01:09:55;;;;;;;29.52;19.67;;;;;;;19.68;100.00;99405.78;5056389;28;20043;-42
2022/07/06 01:12:20;;;;;;;25.38;19.50;;;;;;;19.61;100.00;99394.00;5073126;28;20044;-42
2022/07/06 01:14:47;;;;;;;23.73;19.50;;;;;;;19.68;100.00;99409.22;5073521;28;20432;-45
2022/07/06 01:17:14;;;;;;;24.38;19.38;;;;;;;19.68;100.00;99413.69;5090826;28;20478;-43
2022/07/06 01:19:40;;;;;;;25.00;18.58;;;;;;;19.69;100.00;99415.34;5055423;28;20041;-45
2022/07/06 01:22:06;;;;;;;29.80;21.27;;;;;;;19.70;100.00;99409.97;5053029;28;20045;-43
2022/07/06 01:24:31;;;;;;;27.75;21.25;;;;;;;19.73;100.00;99408.91;5091192;28;20120;-44
2022/07/06 01:26:58;;;;;;;30.02;19.70;;;;;;;19.74;100.00;99413.19;5065208;28;20055;-43
2022/07/06 01:29:24;;;;;;;25.50;20.08;;;;;;;19.75;100.00;99414.88;5056468;28;20518;-42
2022/07/06 01:31:52;;;;;;;27.33;20.23;;;;;;;19.72;100.00;99413.34;5070417;28;20633;-44
2022/07/06 01:34:18;;;;;;;26.00;20.33;;;;;;;19.66;100.00;99405.88;5073248;28;20050;-43
2022/07/06 01:36:44;;;;;;;27.80;19.10;;;;;;;19.75;100.00;99412.25;5046362;28;20040;-44
2022/07/06 01:39:10;;;;;;;24.65;19.00;;;;;;;19.75;100.00;99418.38;5073738;28;20039;-43
2022/07/06 01:41:37;;;;;;;25.60;20.05;;;;;;;19.74;100.00;99410.56;5090371;28;20043;-43
2022/07/06 01:44:04;;;;;;;31.30;20.00;;;;;;;19.75;100.00;99410.44;5071587;28;20044;-43
2022/07/06 01:46:30;;;;;;;28.35;21.02;;;;;;;19.78;100.00;99414.66;5070254;28;20041;-44
2022/07/06 01:48:56;;;;;;;30.35;22.00;;;;;;;19.76;100.00;99409.50;5043273;28;20565;-42
2022/07/06 01:51:22;;;;;;;33.63;22.70;;;;;;;19.80;100.00;99413.56;5072445;28;20036;-42
2022/07/06 01:53:48;;;;;;;30.25;20.55;;;;;;;19.85;100.00;99429.06;5090329;28;20389;-41
2022/07/06 01:56:18;;;;;;;26.20;20.33;;;;;;;19.85;100.00;99435.16;5060898;28;20052;-42
2022/07/06 01:58:47;;;;;;;27.63;20.05;;;;;;;19.84;100.00;99422.94;5071908;28;20044;-42
2022/07/06 02:01:17;;;;;;;26.02;20.15;;;;;;;19.84;100.00;99428.19;5061988;28;20032;-42
2022/07/06 02:03:44;;;;;;;26.83;20.00;;;;;;;19.87;100.00;99430.63;5072119;28;20569;-42
2022/07/06 02:06:11;;;;;;;29.42;20.48;;;;;;;19.89;100.00;99423.41;5072125;28;20032;-45
2022/07/06 02:08:38;;;;;;;26.80;20.50;;;;;;;19.91;100.00;99415.38;5043498;28;20044;-43
2022/07/06 02:11:09;;;;;;;27.25;20.35;;;;;;;19.87;100.00;99408.69;5072038;28;20047;-44
2022/07/06 02:13:38;;;;;;;30.90;20.92;;;;;;;20.00;100.00;99432.31;5055663;28;20097;-43
2022/07/06 02:16:26;;;;;;;27.17;21.58;;;;;;;20.01;100.00;99432.19;5060940;28;20058;-43
2022/07/06 02:18:52;;;;;;;26.55;19.67;;;;;;;20.00;100.00;99432.31;5070542;28;20404;-44
2022/07/06 02:21:18;;;;;;;28.17;20.60;;;;;;;20.00;100.00;99429.66;5072135;28;20142;-43
2022/07/06 02:23:46;;;;;;;24.45;19.52;;;;;;;19.95;100.00;99421.25;5054922;28;20271;-42
2022/07/06 02:26:12;;;;;;;24.50;20.50;;;;;;;20.05;100.00;99441.53;5077845;28;20042;-43
2022/07/06 02:28:38;;;;;;;24.88;20.35;;;;;;;20.08;100.00;99441.31;5055029;28;20372;-44
2022/07/06 02:31:05;;;;;;;26.08;20.95;;;;;;;20.11;100.00;99448.16;5072012;28;20127;-43
2022/07/06 02:33:31;;;;;;;27.23;21.02;;;;;;;20.12;100.00;99437.50;5082625;28;20090;-44
2022/07/06 02:35:57;;;;;;;26.50;20.83;;;;;;;20.15;100.00;99445.16;5071315;28;20055;-43
2022/07/06 02:38:22;;;;;;;26.55;20.77;;;;;;;20.03;100.00;99424.16;5089057;28;20085;-42
2022/07/06 02:40:48;;;;;;;28.27;20.92;;;;;;;20.16;100.00;99441.56;5089340;28;20594;-43
2022/07/06 02:43:14;;;;;;;25.48;20.05;;;;;;;20.21;100.00;99449.13;5068920;28;20040;-46
2022/07/06 02:45:41;;;;;;;27.73;20.33;;;;;;;20.24;100.00;99443.63;5071692;28;20054;-44
2022/07/06 02:48:08;;;;;;;28.73;20.80;;;;;;;20.28;100.00;99445.06;5071711;28;20043;-44
2022/07/06 02:50:34;;;;;;;23.90;19.48;;;;;;;20.23;100.00;99432.22;5070432;28;20048;-43
2022/07/06 02:53:01;;;;;;;26.10;20.65;;;;;;;20.37;100.00;99444.38;5071708;28;20064;-43
2022/07/06 02:55:27;;;;;;;28.42;21.42;;;;;;;20.42;100.00;99438.72;5071612;28;20485;-42
2022/07/06 02:57:54;;;;;;;25.70;19.63;;;;;;;20.30;100.00;99406.19;5054532;28;20048;-42
2022/07/06 03:00:21;;;;;;;26.13;19.55;;;;;;;20.49;100.00;99432.00;5039090;28;20040;-42
2022/07/06 03:02:47;;;;;;;23.80;20.00;;;;;;;20.54;100.00;99432.47;5065856;28;20051;-45
2022/07/06 03:05:14;;;;;;;25.02;20.65;;;;;;;20.60;100.00;99430.19;5070062;28;20063;-43
2022/07/06 03:07:41;;;;;;;28.27;20.02;;;;;;;20.62;100.00;99430.09;5071397;28;20086;-43
2022/07/06 03:10:07;;;;;;;24.08;18.50;;;;;;;20.60;100.00;99408.22;5054138;28;20047;-42
2022/07/06 03:12:33;;;;;;;25.02;19.48;;;;;;;20.71;100.00;99414.31;5088350;28;20119;-43
2022/07/06 03:15:00;;;;;;;23.73;19.20;;;;;;;20.77;100.00;99414.78;5089429;28;20032;-42
2022/07/06 03:17:29;;;;;;;26.15;20.27;;;;;;;20.81;99.85;99413.59;5071134;28;20040;-42
2022/07/06 03:19:55;;;;;;;23.83;19.98;;;;;;;20.86;99.04;99409.59;5071459;28;20042;-43
2022/07/06 03:22:22;;;;;;;24.25;19.65;;;;;;;20.90;99.26;99411.03;5068318;28;20087;-44
2022/07/06 03:24:49;;;;;;;26.15;19.13;;;;;;;20.92;98.54;99417.03;5070265;28;20048;-43
2022/07/06 03:27:15;;;;;;;23.63;19.20;;;;;;;20.98;98.38;99416.53;5042488;28;20036;-43
2022/07/06 03:29:41;;;;;;;25.90;18.67;;;;;;;21.04;97.81;99418.66;5054416;28;20505;-43
2022/07/06 03:32:11;;;;;;;22.13;16.75;;;;;;;21.10;96.00;99419.97;5067260;28;20044;-44
2022/07/06 03:34:37;;;;;;;24.00;17.00;;;;;;;21.14;94.56;99419.63;5070602;28;20051;-43
2022/07/06 03:37:03;;;;;;;23.83;17.17;;;;;;;21.21;94.00;99419.13;5073376;28;20039;-42
2022/07/06 03:39:29;;;;;;;21.13;16.65;;;;;;;21.26;93.16;99425.72;5075492;28;20078;-43
2022/07/06 03:41:57;;;;;;;20.83;16.85;;;;;;;21.32;92.94;99427.00;5054674;28;20048;-43
2022/07/06 03:44:22;;;;;;;26.73;18.40;;;;;;;21.37;92.73;99432.75;5086644;28;20044;-41
2022/07/06 03:46:49;;;;;;;23.35;16.20;;;;;;;21.42;91.97;99430.56;5091529;28;20052;-40
2022/07/06 03:49:15;;;;;;;19.70;16.75;;;;;;;21.48;91.35;99436.19;5075121;28;20455;-42
2022/07/06 03:51:41;;;;;;;20.92;16.70;;;;;;;21.54;90.31;99426.91;5074413;28;20040;-41
2022/07/06 03:54:07;;;;;;;25.25;16.20;;;;;;;21.61;89.76;99425.44;5074768;28;20047;-42
2022/07/06 03:56:33;;;;;;;23.88;16.70;;;;;;;21.67;88.91;99426.75;5074616;28;20047;-43
2022/07/06 03:59:05;;;;;;;19.88;16.33;;;;;;;21.70;87.92;99424.66;5074910;28;20415;-43
2022/07/06 04:01:34;;;;;;;21.90;15.15;;;;;;;21.78;87.03;99426.66;5074351;28;20741;-41
2022/07/06 04:04:01;;;;;;;21.58;15.23;;;;;;;21.83;86.35;99424.44;5075243;28;20042;-43
2022/07/06 04:06:30;;;;;;;20.25;15.57;;;;;;;21.87;85.45;99437.31;5074697;28;20522;-43
2022/07/06 04:08:56;;;;;;;21.33;15.52;;;;;;;21.91;84.94;99428.16;5074145;28;20055;-43
2022/07/06 04:11:24;;;;;;;20.88;15.88;;;;;;;21.91;84.68;99417.56;5074593;28;20040;-42
2022/07/06 04:13:49;;;;;;;18.38;14.32;;;;;;;22.04;84.39;99427.09;5092826;28;20093;-43
2022/07/06 04:16:15;;;;;;;22.45;16.67;;;;;;;22.10;84.54;99429.22;5078281;28;20444;-42
2022/07/06 04:18:41;;;;;;;20.50;16.70;;;;;;;22.13;84.29;99426.34;5072759;28;20043;-43
2022/07/06 04:21:07;;;;;;;21.25;16.42;;;;;;;22.18;84.20;99426.78;5092585;28;20056;-42
2022/07/06 04:23:36;;;;;;;23.77;16.08;;;;;;;22.15;84.18;99405.84;5074300;28;20503;-42
2022/07/06 04:26:03;;;;;;;19.67;14.93;;;;;;;22.30;84.24;99420.41;5073607;28;20051;-42
2022/07/06 04:28:32;;;;;;;16.73;14.23;;;;;;;22.38;83.94;99417.94;5059622;28;20087;-42
2022/07/06 04:31:00;;;;;;;18.02;13.65;;;;;;;22.47;83.52;99417.13;5072300;28;20043;-43
2022/07/06 04:33:26;;;;;;;16.20;13.52;;;;;;;22.56;83.26;99410.22;5071201;28;20123;-43
2022/07/06 04:35:52;;;;;;;14.80;11.82;;;;;;;22.58;81.57;99416.19;5037634;28;20139;-43
2022/07/06 04:38:21;;;;;;;18.08;12.38;;;;;;;22.64;80.29;99413.00;5085404;28;20127;-43
2022/07/06 04:40:48;;;;;;;16.90;12.45;;;;;;;22.65;80.41;99406.72;5057546;28;20044;-43
2022/07/06 04:43:16;;;;;;;13.40;11.98;;;;;;;22.75;80.01;99418.22;5080682;28;20670;-42
2022/07/06 04:45:43;;;;;;;16.50;12.10;;;;;;;22.83;79.57;99409.56;5070615;28;20048;-42
2022/07/06 04:48:09;;;;;;;16.33;13.27;;;;;;;22.90;78.86;99413.38;5064722;28;20521;-43
2022/07/06 04:50:36;;;;;;;16.92;12.82;;;;;;;23.00;78.51;99411.56;5091784;28;20426;-43
2022/07/06 04:53:04;;;;;;;15.80;12.30;;;;;;;23.09;77.90;99419.53;5056909;28;20096;-42
2022/07/06 04:55:31;;;;;;;15.48;11.18;;;;;;;23.17;76.68;99410.88;5073887;28;20044;-43
2022/07/06 04:57:58;;;;;;;15.40;11.88;;;;;;;23.25;76.09;99416.31;5072656;28;20048;-44
2022/07/06 05:00:24;;;;;;;18.15;10.63;;;;;;;23.28;73.63;99407.25;5073484;28;20044;-42
2022/07/06 05:02:50;;;;;;;12.40;9.80;;;;;;;23.35;73.32;99413.66;5062458;28;20661;-43
2022/07/06 05:05:17;;;;;;;14.27;11.57;;;;;;;23.42;72.42;99406.84;5055250;28;20051;-42
2022/07/06 05:07:44;;;;;;;13.80;10.88;;;;;;;23.49;72.15;99408.81;5057746;28;20048;-43
2022/07/06 05:10:11;;;;;;;14.68;11.02;;;;;;;23.46;72.13;99395.81;5056544;28;20058;-42
2022/07/06 05:12:40;;;;;;;14.63;11.13;;;;;;;23.68;71.76;99407.94;5072677;28;20036;-43
2022/07/06 05:15:07;;;;;;;11.52;10.23;;;;;;;23.76;71.31;99405.41;5073100;28;20118;-42
2022/07/06 05:17:34;;;;;;;15.10;10.20;;;;;;;23.77;71.03;99392.97;5055952;28;20039;-42
2022/07/06 05:20:01;;;;;;;12.75;10.05;;;;;;;23.93;70.67;99403.84;5066001;28;20543;-43
2022/07/06 05:22:30;;;;;;;13.75;9.93;;;;;;;24.03;70.40;99405.47;5073315;28;20047;-44
2022/07/06 05:24:56;;;;;;;15.57;10.68;;;;;;;24.07;69.35;99390.91;5072546;28;20737;-41
2022/07/06 05:27:22;;;;;;;13.43;10.77;;;;;;;24.21;68.75;99396.78;5089832;28;20036;-42
2022/07/06 05:29:48;;;;;;;15.05;11.00;;;;;;;24.18;68.38;99384.63;5073090;28;20424;-44
2022/07/06 05:32:15;;;;;;;13.98;11.13;;;;;;;24.36;68.16;99398.81;5072373;28;20161;-44
2022/07/06 05:34:41;;;;;;;15.73;11.50;;;;;;;24.34;68.58;99376.00;5072897;28;20054;-44
2022/07/06 05:37:07;;;;;;;14.20;11.85;;;;;;;24.57;68.48;99403.88;5075108;28;20527;-41
2022/07/06 05:39:34;;;;;;;17.20;12.52;;;;;;;24.66;68.00;99399.50;5068705;28;20048;-43
2022/07/06 05:42:00;;;;;;;14.35;11.70;;;;;;;24.78;67.80;99393.81;5083317;28;20047;-42
2022/07/06 05:44:26;;;;;;;17.00;13.32;;;;;;;24.88;66.92;99396.44;5090375;28;20307;-42
2022/07/06 05:50:11;;;;;;;19.65;12.63;;;;;;;24.95;66.84;99396.69;5059647;28;20524;-41
2022/07/06 05:52:21;;;;;;;16.08;11.18;;;;;;;25.15;64.96;99391.06;5074421;28;20044;-43
2022/07/06 05:54:47;;;;;;;15.05;12.15;;;;;;;25.31;64.41;99396.53;5059808;28;20044;-44
2022/07/06 05:57:13;;;;;;;15.48;12.00;;;;;;;25.47;64.26;99395.84;5089244;28;20071;-42
2022/07/06 05:59:39;;;;;;;16.05;11.73;;;;;;;25.62;63.64;99393.47;5071578;28;20730;-43
2022/07/06 06:02:05;;;;;;;17.48;12.98;;;;;;;25.75;64.01;99401.88;5074892;28;20044;-44
2022/07/06 06:04:31;;;;;;;18.60;12.65;;;;;;;25.94;63.69;99395.53;5074025;28;20422;-42
2022/07/06 06:06:57;;;;;;;17.98;11.80;;;;;;;26.07;63.23;99387.94;5092175;28;20043;-44
2022/07/06 06:09:23;;;;;;;15.52;10.65;;;;;;;26.28;61.79;99393.75;5083023;28;20170;-45
2022/07/06 06:11:50;;;;;;;15.45;10.90;;;;;;;26.42;61.41;99386.97;5075724;28;20503;-43
2022/07/06 06:14:17;;;;;;;12.57;10.25;;;;;;;26.50;61.31;99387.84;5079840;28;20051;-43
2022/07/06 06:16:42;;;;;;;13.23;9.82;;;;;;;26.67;60.50;99395.91;5063501;28;20053;-43
2022/07/06 06:19:08;;;;;;;12.85;10.15;;;;;;;26.80;60.05;99388.25;5076562;28;20047;-43
2022/07/06 06:21:34;;;;;;;11.70;9.80;;;;;;;26.92;58.44;99392.31;5080548;28;20059;-46
2022/07/06 06:24:00;;;;;;;13.13;8.68;;;;;;;26.92;57.41;99381.66;5081323;28;20424;-42
2022/07/06 06:26:25;;;;;;;12.68;9.18;;;;;;;27.02;55.53;99366.31;5098228;28;20055;-49
2022/07/06 06:28:51;;;;;;;11.07;9.32;;;;;;;27.20;55.69;99382.19;5082336;28;20039;-46
2022/07/06 06:31:17;;;;;;;13.88;9.13;;;;;;;27.41;55.31;99382.53;5084929;28;20052;-43
2022/07/06 06:33:45;;;;;;;13.45;9.73;;;;;;;27.59;55.17;99385.88;5093914;28;20024;-45
2022/07/06 06:36:12;;;;;;;10.18;8.95;;;;;;;27.64;54.20;99385.38;5096905;28;20197;-44
2022/07/06 06:38:38;;;;;;;13.55;8.88;;;;;;;27.64;53.42;99385.38;5090087;28;20046;-50
2022/07/06 06:41:03;;;;;;;14.73;8.45;;;;;;;27.74;53.56;99386.06;5093787;28;20035;-48
2022/07/06 06:43:29;;;;;;;10.48;8.35;;;;;;;28.05;53.30;99388.81;5097896;28;20422;-54
2022/07/06 06:46:16;;;;;;;10.32;8.23;;;;;;;28.42;50.34;99383.69;5082160;28;20063;-46
2022/07/06 06:48:41;;;;;;;13.38;8.75;;;;;;;29.00;49.55;99383.22;5099466;28;20534;-45
2022/07/06 06:51:08;;;;;;;10.93;8.30;;;;;;;29.96;47.88;99379.09;5095223;28;20047;-50
2022/07/06 06:53:34;;;;;;;10.13;8.90;;;;;;;30.64;44.88;99382.31;5078903;28;20031;-47
2022/07/06 06:56:01;;;;;;;9.63;8.50;;;;;;;31.06;44.19;99386.13;5044987;28;20164;-46
2022/07/06 06:58:26;;;;;;;9.15;7.15;;;;;;;31.62;42.33;99389.75;5069575;28;20047;-45
2022/07/06 07:00:52;;;;;;;9.75;8.27;;;;;;;32.08;40.41;99381.19;5074935;28;20048;-45
2022/07/06 07:03:17;;;;;;;9.25;7.70;;;;;;;32.90;39.25;99389.25;5079974;28;20127;-49
2022/07/06 07:05:43;;;;;;;10.88;7.75;;;;;;;33.84;37.87;99382.75;5091742;28;20051;-48
2022/07/06 07:08:09;;;;;;;8.90;7.65;;;;;;;34.50;36.92;99387.16;5071943;28;20062;-46
2022/07/06 07:10:36;;;;;;;8.40;7.60;;;;;;;34.75;36.04;99393.53;5075042;28;20047;-46
2022/07/06 07:13:02;;;;;;;8.95;7.80;;;;;;;35.12;34.90;99381.84;5092227;28;20119;-47
2022/07/06 07:15:28;;;;;;;8.02;7.22;;;;;;;35.56;33.32;99389.03;5092492;28;20056;-47
2022/07/06 07:17:54;;;;;;;8.65;7.47;;;;;;;36.24;32.07;99396.34;5094457;28;20036;-45
2022/07/06 07:20:19;;;;;;;12.02;7.70;;;;;;;36.50;31.88;99383.31;5073861;28;20052;-51
2022/07/06 07:22:45;;;;;;;9.77;7.57;;;;;;;37.37;31.25;99385.72;5093427;28;20040;-44
2022/07/06 07:25:11;;;;;;;9.77;8.75;;;;;;;37.87;30.91;99394.25;5100584;28;20070;-44
2022/07/06 07:27:36;;;;;;;9.57;8.32;;;;;;;37.36;29.79;99384.88;5090386;28;20066;-45
2022/07/06 07:30:03;;;;;;;8.85;7.95;;;;;;;37.93;29.73;99377.88;5088491;28;20082;-49
2022/07/06 07:32:29;;;;;;;9.48;8.50;;;;;;;39.18;28.60;99382.63;5100570;28;20040;-46
2022/07/06 07:34:55;;;;;;;9.30;8.30;;;;;;;38.68;28.32;99383.28;5098643;28;20036;-44
2022/07/06 07:37:21;;;;;;;9.27;8.07;;;;;;;37.94;29.11;99374.09;5075201;28;20048;-47
2022/07/06 07:39:46;;;;;;;9.40;7.72;;;;;;;37.46;30.28;99377.00;5091512;28;20044;-45
2022/07/06 07:42:13;;;;;;;9.85;7.20;;;;;;;37.54;29.83;99371.25;5073221;28;20040;-44
2022/07/06 07:44:40;;;;;;;9.32;8.43;;;;;;;37.68;29.80;99369.97;5093063;28;20052;-46
2022/07/06 07:47:06;;;;;;;13.90;8.98;;;;;;;38.89;28.68;99363.59;5074956;28;20131;-44
2022/07/06 07:49:32;;;;;;;10.25;8.30;;;;;;;39.73;27.37;99375.38;5092735;28;20479;-45
2022/07/06 07:51:58;;;;;;;13.98;8.82;;;;;;;39.25;28.22;99386.00;5107536;28;20044;-46
2022/07/06 07:54:23;;;;;;;8.52;7.72;;;;;;;38.79;28.77;99384.31;5109416;28;20027;-44
2022/07/06 07:56:49;;;;;;;9.40;8.50;;;;;;;39.15;27.86;99378.47;5091413;28;20511;-43
2022/07/06 07:59:15;;;;;;;10.85;9.55;;;;;;;39.09;27.84;99386.81;5080605;28;20416;-45
2022/07/06 08:01:44;;;;;;;10.35;9.13;;;;;;;39.56;27.86;99380.03;5071649;28;20063;-48
2022/07/06 08:04:10;;;;;;;13.23;10.00;;;;;;;40.41;26.64;99382.34;5043711;28;20042;-46
2022/07/06 08:06:35;;;;;;;10.20;9.30;;;;;;;41.14;25.71;99380.22;5071229;28;20033;-45
2022/07/06 08:09:03;;;;;;;10.10;9.23;;;;;;;41.19;25.59;99385.72;5066005;28;20032;-46
2022/07/06 08:11:29;;;;;;;11.05;10.05;;;;;;;41.19;25.39;99377.53;5092283;28;20118;-46
2022/07/06 08:13:55;;;;;;;15.43;10.73;;;;;;;41.38;25.47;99374.16;5092727;28;20496;-45
2022/07/06 08:16:21;;;;;;;11.75;10.40;;;;;;;41.97;24.41;99360.41;5074155;28;20127;-44
2022/07/06 08:18:46;;;;;;;11.30;10.30;;;;;;;41.34;25.03;99369.47;5092016;28;20048;-44
2022/07/06 08:21:12;;;;;;;10.63;9.60;;;;;;;39.75;27.05;99361.53;5092001;28;20584;-44
2022/07/06 08:23:38;;;;;;;11.45;10.25;;;;;;;40.37;25.97;99364.88;5090828;28;20044;-45
2022/07/06 08:26:04;;;;;;;10.98;9.98;;;;;;;41.18;25.27;99373.97;5057405;28;20931;-46
2022/07/06 08:28:29;;;;;;;11.77;10.68;;;;;;;41.04;26.07;99375.47;5092004;28;20044;-44
2022/07/06 08:30:56;;;;;;;11.60;10.00;;;;;;;40.82;25.26;99367.34;5092042;28;20101;-45
2022/07/06 08:33:21;;;;;;;11.73;10.63;;;;;;;39.95;26.74;99361.00;5092175;28;20396;-44
2022/07/06 08:35:47;;;;;;;11.82;10.63;;;;;;;40.87;25.99;99359.19;5092113;28;20088;-45
2022/07/06 08:38:13;;;;;;;15.18;10.32;;;;;;;41.01;26.20;99356.88;5091908;28;20405;-45
2022/07/06 08:40:40;;;;;;;12.40;10.73;;;;;;;40.00;26.43;99355.63;5091943;28;20028;-45
2022/07/06 08:43:06;;;;;;;11.90;10.68;;;;;;;39.13;27.35;99348.00;5091553;28;20040;-44
2022/07/06 08:45:34;;;;;;;12.82;11.00;;;;;;;38.47;28.29;99343.22;5073620;28;20075;-44
2022/07/06 08:48:05;;;;;;;12.10;10.90;;;;;;;38.98;27.75;99348.56;5091475;28;20071;-45
2022/07/06 08:50:32;;;;;;;12.05;11.05;;;;;;;39.51;27.66;99351.91;5073505;28;20130;-44
2022/07/06 08:52:58;;;;;;;11.73;10.55;;;;;;;39.49;26.88;99343.16;5057006;28;20427;-43
2022/07/06 08:55:25;;;;;;;12.15;10.57;;;;;;;37.93;29.01;99342.56;5073271;28;20043;-45
2022/07/06 08:57:51;;;;;;;12.88;9.88;;;;;;;38.67;28.28;99349.03;5073371;28;20040;-46
2022/07/06 09:00:17;;;;;;;10.73;9.63;;;;;;;38.96;27.48;99341.69;5091157;28;20522;-46
2022/07/06 09:02:43;;;;;;;12.13;10.95;;;;;;;39.86;26.89;99348.91;5073593;28;20044;-44
2022/07/06 09:05:12;;;;;;;12.15;10.85;;;;;;;41.47;24.60;99340.94;5091515;28;20040;-44
2022/07/06 09:07:39;;;;;;;12.63;11.43;;;;;;;41.48;24.99;99346.13;5090780;28;20036;-43
2022/07/06 09:10:07;;;;;;;13.35;12.02;;;;;;;42.12;24.38;99348.72;5091496;28;20059;-44
2022/07/06 09:12:33;;;;;;;11.95;11.02;;;;;;;42.06;23.69;99349.78;5073286;28;20499;-44
2022/07/06 09:15:00;;;;;;;12.20;11.13;;;;;;;42.27;23.73;99338.69;5075748;28;20427;-46
2022/07/06 09:17:27;;;;;;;11.90;10.90;;;;;;;42.87;22.89;99336.44;5096032;28;20077;-44
2022/07/06 09:19:54;;;;;;;12.15;11.05;;;;;;;43.56;22.29;99339.47;5072652;28;20415;-43
2022/07/06 09:22:31;;;;;;;12.35;10.93;;;;;;;44.45;21.00;99346.06;5091295;28;20251;-47
2022/07/06 09:25:03;;;;;;;;;;;;;;;44.23;21.41;99341.75;5073753;28;20047;-43
2022/07/06 09:27:29;;;;;;;12.25;11.13;;;;;;;44.64;21.02;99336.13;5090563;28;19919;-45
2022/07/06 09:29:59;;;;;;;12.52;11.43;;;;;;;44.51;21.43;99345.78;5072679;28;20113;-44
2022/07/06 09:32:25;;;;;;;12.18;11.10;;;;;;;41.74;23.45;99338.94;5073026;28;20535;-45
2022/07/06 09:34:51;;;;;;;12.63;11.52;;;;;;;39.70;25.31;99323.34;5090676;28;20055;-44
2022/07/06 09:37:17;;;;;;;11.23;10.23;;;;;;;39.37;26.49;99327.75;5072439;28;20044;-44
2022/07/06 09:39:44;;;;;;;12.15;11.10;;;;;;;38.35;27.79;99317.94;5089673;28;20062;-44
2022/07/06 09:42:10;;;;;;;13.38;12.18;;;;;;;38.30;28.21;99326.00;5090664;28;20127;-44
2022/07/06 09:44:37;;;;;;;13.73;12.18;;;;;;;38.76;28.43;99319.56;5090672;28;20190;-45
2022/07/06 09:47:05;;;;;;;;;;;;;;;40.52;26.41;99324.16;5091226;28;20043;-44
2022/07/06 09:49:31;;;;;;;12.80;11.20;;;;;;;42.20;24.28;99329.06;5072086;28;19915;-44
2022/07/06 09:52:02;;;;;;;12.43;11.35;;;;;;;42.71;22.54;99321.09;5090796;28;20142;-44
2022/07/06 09:54:27;;;;;;;11.23;10.18;;;;;;;40.88;24.31;99319.91;5072185;28;20177;-47
2022/07/06 09:56:54;;;;;;;12.10;9.73;;;;;;;39.42;26.16;99316.09;5090417;28;20130;-46
2022/07/06 09:59:22;;;;;;;12.23;11.17;;;;;;;38.48;27.88;99304.09;5072570;28;20036;-46
2022/07/06 10:01:52;;;;;;;14.68;11.63;;;;;;;37.92;28.65;99305.63;5090655;28;20040;-46
2022/07/06 10:04:19;;;;;;;15.25;12.77;;;;;;;37.49;29.61;99308.69;5090199;28;20532;-45
2022/07/06 10:06:45;;;;;;;;;;;;;;;37.39;29.98;99308.44;5091052;28;20044;-45
2022/07/06 10:09:12;;;;;;;13.00;11.30;;;;;;;37.44;29.96;99299.59;5090371;28;19927;-45
2022/07/06 10:11:45;;;;;;;14.13;11.43;;;;;;;37.01;30.31;99298.00;5090501;28;20036;-44
2022/07/06 10:14:14;;;;;;;18.83;15.30;;;;;;;37.02;30.76;99298.81;5072146;28;20089;-44
2022/07/06 10:16:40;;;;;;;15.55;14.00;;;;;;;36.87;31.65;99285.72;5072560;28;20040;-46
2022/07/06 10:19:09;;;;;;;12.65;11.45;;;;;;;37.01;30.76;99294.44;5089895;28;20452;-44
2022/07/06 10:21:37;;;;;;;15.52;13.93;;;;;;;38.01;30.13;99287.91;5089750;28;20580;-49
2022/07/06 10:24:04;;;;;;;11.85;10.77;;;;;;;38.64;29.58;99294.31;5071898;28;20523;-48
2022/07/06 10:26:30;;;;;;;12.45;11.25;;;;;;;37.36;30.02;99287.25;5072076;28;20427;-47
2022/07/06 10:28:58;;;;;;;11.80;10.70;;;;;;;35.87;31.91;99277.22;5089681;28;20126;-48
2022/07/06 10:31:25;;;;;;;11.95;10.82;;;;;;;36.23;31.28;99289.91;5067629;28;20051;-47
2022/07/06 10:33:52;;;;;;;13.23;11.27;;;;;;;36.25;31.70;99276.16;5072381;28;20065;-46
2022/07/06 10:36:18;;;;;;;12.38;11.02;;;;;;;35.65;32.62;99284.91;5071993;28;20047;-46
2022/07/06 10:38:48;;;;;;;11.20;10.02;;;;;;;36.68;30.94;99276.03;5068410;28;20041;-46
2022/07/06 10:41:14;;;;;;;11.88;10.77;;;;;;;37.75;29.15;99285.69;5083855;28;20059;-46
2022/07/06 10:43:45;;;;;;;12.43;11.32;;;;;;;38.35;28.28;99279.91;5038570;28;20499;-48
2022/07/06 10:46:13;;;;;;;11.13;9.88;;;;;;;39.68;26.76;99265.59;5089413;28;20047;-46
2022/07/06 10:48:41;;;;;;;10.93;10.02;;;;;;;40.30;26.27;99268.06;5089678;28;20033;-46
2022/07/06 10:51:08;;;;;;;11.10;10.20;;;;;;;39.74;26.68;99278.19;5089515;28;20043;-45
2022/07/06 10:53:37;;;;;;;11.90;10.70;;;;;;;38.35;28.03;99279.91;5089811;28;20039;-49
2022/07/06 10:56:07;;;;;;;10.15;9.25;;;;;;;37.05;29.64;99272.09;5090092;28;20040;-43
2022/07/06 10:58:45;;;;;;;11.18;10.02;;;;;;;36.16;30.93;99272.97;5071728;28;20040;-45
2022/07/06 11:01:13;;;;;;;10.15;9.25;;;;;;;35.60;31.74;99259.59;5074942;28;20048;-48
2022/07/06 11:03:38;;;;;;;10.80;9.70;;;;;;;35.99;30.81;99264.59;5079502;28;20035;-45
2022/07/06 11:06:12;;;;;;;14.55;10.70;;;;;;;37.82;28.57;99261.16;5098902;28;20590;-49
2022/07/06 11:08:50;;;;;;;10.93;9.93;;;;;;;39.36;26.90;99244.47;5089658;28;20036;-46
2022/07/06 11:11:23;;;;;;;11.27;10.18;;;;;;;40.24;25.66;99256.28;5089397;28;20086;-45
2022/07/06 11:13:56;;;;;;;10.95;10.05;;;;;;;41.38;24.10;99264.16;5090089;28;20039;-48
2022/07/06 11:16:26;;;;;;;10.73;8.90;;;;;;;39.79;25.00;99264.69;5090043;28;20055;-47
2022/07/06 11:19:13;;;;;;;10.30;9.27;;;;;;;37.53;27.57;99252.88;5089615;28;20042;-45